Rosamond, CA

1:11 AM PST on February 06, 2016 (GMT -0800)
Rural Rosamond | | Change Station
CLOSE
Current Station
Personal Weather Station
Location: Rosamond, CA
Elevation: 2411 ft
Nearby Weather Stations

Elev 2411 ft 34.83 °N, 118.27 °W | Updated 18 seconds ago

Clear
Clear
35.1 °F
Feels Like 35 °F
N
1.8
Wind Variable Wind from SSE
Gusts 2.5 mph

Today
High -- | Low -- °F
--% Chance of Precip.
Yesterday
High -- | Low -- °F
Precip. -- in
Pressure 30.48 in
Visibility 10.0 miles
Clouds Clear
Windchill 35 °F
Dew Point 25 °F
Humidity 67%
Rainfall 0.00 in
Snow Depth Not available.
6:47 AM 5:26 PM
Waning Crescent, 6% visible
METAR KWJF 060856Z AUTO 29006KT 10SM CLR 00/M04 A3045 RMK AO2 SLP319 T00001044 51003
Pressure 30.48 in
Visibility 10.0 miles
Clouds Clear
Windchill 35 °F
Dew Point 25 °F
Humidity 67%
Rainfall 0.00 in
Snow Depth Not available.
6:47 AM 5:26 PM
Waning Crescent, 6% visible
METAR KWJF 060856Z AUTO 29006KT 10SM CLR 00/M04 A3045 RMK AO2 SLP319 T00001044 51003

10-Day Weather Forecast

Almanac

Astronomy

Feb. 06, 2016 Rise Set
Actual Time
Civil Twilight
Nautical Twilight
Astronomical Twilight
Moon
Length of Visible Light
Length of Day
Tomorrow will be .
, % of the Moon is Illuminated

Today's Extremes

State Highs State Lows

Community

WunderPhotos

Upload Photos

1,890,933 photos uploaded!

WunderBlog® & News

Nearby

Air Quality

  Air Quality AQ Index Pollutant
Not available.

Snow Depth

Station Depth Elevation

Earthquake Activity

City Distance Mag. Time & Date
Minimum magnitude displayed is 2.5.

Coastal Water Temperatures

Place Temperature

Stations

Nearby Weather Stations

Station Location Temp. Windchill Dew Point Humidity Wind Precip. Elev Updated Type
                   

Watches & Warnings

There are currently no watches in effect.